createdAt,value
2017-08-09T00:00:19.552Z,0
2017-08-09T00:01:00.116Z,0
2017-08-09T00:01:40.759Z,0
2017-08-09T00:02:21.336Z,0
2017-08-09T00:03:01.919Z,0
2017-08-09T00:03:42.515Z,0
2017-08-09T00:04:23.089Z,0
2017-08-09T00:05:03.661Z,0
2017-08-09T00:05:44.227Z,0
2017-08-09T00:06:24.795Z,0
2017-08-09T00:07:05.383Z,0
2017-08-09T00:07:45.952Z,0
2017-08-09T00:08:26.552Z,0
2017-08-09T00:09:07.154Z,0
2017-08-09T00:09:47.752Z,0
2017-08-09T00:10:28.359Z,0
2017-08-09T00:11:08.930Z,0
2017-08-09T00:11:49.502Z,0
2017-08-09T00:12:30.133Z,0
2017-08-09T00:13:10.700Z,0
2017-08-09T00:13:51.316Z,0
2017-08-09T00:14:31.880Z,0
2017-08-09T00:15:12.471Z,0
2017-08-09T00:15:53.046Z,0
2017-08-09T00:16:33.627Z,0
2017-08-09T00:17:14.206Z,0
2017-08-09T00:17:54.805Z,0
2017-08-09T00:18:35.372Z,0
2017-08-09T00:19:15.961Z,0
2017-08-09T00:19:56.560Z,0
2017-08-09T00:20:37.130Z,0
2017-08-09T00:21:17.960Z,0
2017-08-09T00:21:58.546Z,0
2017-08-09T00:22:39.147Z,0
2017-08-09T00:23:19.715Z,0
2017-08-09T00:24:00.291Z,0
2017-08-09T00:24:40.860Z,0
2017-08-09T00:25:21.434Z,0
2017-08-09T00:26:02.019Z,0
2017-08-09T00:26:42.616Z,0
2017-08-09T00:27:23.203Z,0
2017-08-09T00:28:03.780Z,0
2017-08-09T00:28:51.081Z,0
2017-08-09T00:29:31.649Z,0
2017-08-09T00:30:12.244Z,0
2017-08-09T00:30:52.810Z,0
2017-08-09T00:31:33.408Z,0
2017-08-09T00:32:13.987Z,0
2017-08-09T00:32:54.593Z,0
2017-08-09T00:33:35.194Z,0
2017-08-09T00:34:15.785Z,0
2017-08-09T00:34:56.350Z,0
2017-08-09T00:35:36.920Z,0
2017-08-09T00:36:17.513Z,0
2017-08-09T00:36:58.088Z,0
2017-08-09T00:37:38.662Z,0
2017-08-09T00:38:19.235Z,0
2017-08-09T00:38:59.806Z,0
2017-08-09T00:39:40.384Z,0
2017-08-09T00:40:20.965Z,0
2017-08-09T00:41:01.533Z,0
2017-08-09T00:41:42.109Z,0
2017-08-09T00:42:22.685Z,0
2017-08-09T00:43:03.258Z,0
2017-08-09T00:43:43.839Z,0
2017-08-09T00:44:24.426Z,0
2017-08-09T00:45:05.008Z,0
2017-08-09T00:45:45.600Z,0
2017-08-09T00:46:26.184Z,0
2017-08-09T00:47:06.758Z,0
2017-08-09T00:47:47.346Z,0
2017-08-09T00:48:27.933Z,0
2017-08-09T00:49:08.508Z,0
2017-08-09T00:49:49.076Z,0
2017-08-09T00:50:29.659Z,0
2017-08-09T00:51:10.246Z,0
2017-08-09T00:51:50.816Z,0
2017-08-09T00:52:31.405Z,0
2017-08-09T00:53:11.995Z,0
2017-08-09T00:53:52.565Z,0
2017-08-09T00:54:33.148Z,0
2017-08-09T00:55:13.741Z,0
2017-08-09T00:55:54.331Z,0
2017-08-09T00:56:34.899Z,0
2017-08-09T00:57:15.524Z,0
2017-08-09T00:57:56.147Z,0
2017-08-09T00:58:36.739Z,0
2017-08-09T00:59:17.333Z,0
2017-08-09T00:59:57.922Z,0
2017-08-09T01:00:38.499Z,0
2017-08-09T01:01:19.060Z,0
2017-08-09T01:01:59.637Z,0
2017-08-09T01:02:40.205Z,0
2017-08-09T01:03:20.800Z,0
2017-08-09T01:04:01.386Z,0
2017-08-09T01:04:41.998Z,0
2017-08-09T01:05:22.572Z,0
2017-08-09T01:06:03.147Z,0
2017-08-09T01:06:43.710Z,0
2017-08-09T01:07:24.305Z,0
2017-08-09T01:08:04.881Z,0
2017-08-09T01:08:45.456Z,0
2017-08-09T01:09:26.057Z,0
2017-08-09T01:10:06.650Z,0
2017-08-09T01:10:47.223Z,0
2017-08-09T01:11:27.803Z,0
2017-08-09T01:12:08.384Z,0
2017-08-09T01:12:48.984Z,0
2017-08-09T01:13:29.569Z,0
2017-08-09T01:14:10.143Z,0
2017-08-09T01:14:50.734Z,0
2017-08-09T01:15:31.325Z,0
2017-08-09T01:16:11.898Z,0
2017-08-09T01:16:52.470Z,0
2017-08-09T01:17:33.064Z,0
2017-08-09T01:18:13.645Z,0
2017-08-09T01:18:54.220Z,0
2017-08-09T01:19:34.792Z,0
2017-08-09T01:20:15.422Z,0
2017-08-09T01:20:56.005Z,0
2017-08-09T01:21:36.603Z,0
2017-08-09T01:22:17.184Z,0
2017-08-09T01:22:57.788Z,0
2017-08-09T01:23:38.347Z,0
2017-08-09T01:24:18.951Z,0
2017-08-09T01:24:59.544Z,0
2017-08-09T01:25:40.159Z,0
2017-08-09T01:26:20.760Z,0
2017-08-09T01:27:01.373Z,0
2017-08-09T01:27:41.962Z,0
2017-08-09T01:28:22.538Z,0
2017-08-09T01:29:03.144Z,0
2017-08-09T01:29:43.719Z,0
2017-08-09T01:30:24.285Z,0
2017-08-09T01:31:04.864Z,0
2017-08-09T01:31:45.478Z,0
2017-08-09T01:32:26.057Z,0
2017-08-09T01:33:06.654Z,0
2017-08-09T01:33:47.228Z,0
2017-08-09T01:34:27.801Z,0
2017-08-09T01:35:08.371Z,0
2017-08-09T01:35:48.964Z,0
2017-08-09T01:36:29.545Z,0
2017-08-09T01:37:10.116Z,0
2017-08-09T01:37:50.696Z,0
2017-08-09T01:38:31.268Z,0
2017-08-09T01:39:11.843Z,0
2017-08-09T01:39:52.445Z,0
2017-08-09T01:40:33.055Z,0
2017-08-09T01:41:13.630Z,0
2017-08-09T01:41:54.277Z,0
2017-08-09T01:42:34.857Z,0
2017-08-09T01:43:15.434Z,0
2017-08-09T01:43:56.007Z,0
2017-08-09T01:44:36.638Z,0
2017-08-09T01:45:17.227Z,0
2017-08-09T01:45:57.789Z,0
2017-08-09T01:46:38.370Z,0
2017-08-09T01:47:18.981Z,0
2017-08-09T01:47:59.548Z,0
2017-08-09T01:48:40.155Z,0
2017-08-09T01:49:20.749Z,0
2017-08-09T01:50:01.358Z,0
2017-08-09T01:50:41.933Z,0
2017-08-09T01:51:22.500Z,0
2017-08-09T01:52:03.095Z,0
2017-08-09T01:52:43.701Z,0
2017-08-09T01:53:24.255Z,0
2017-08-09T01:54:04.846Z,0
2017-08-09T01:54:45.441Z,0
2017-08-09T01:55:26.087Z,0
2017-08-09T01:56:06.668Z,0
2017-08-09T01:56:47.247Z,0
2017-08-09T01:57:27.836Z,0
2017-08-09T01:58:08.432Z,0
2017-08-09T01:58:49.052Z,0
2017-08-09T01:59:29.644Z,0
2017-08-09T02:00:10.234Z,0
2017-08-09T02:00:50.813Z,0
2017-08-09T02:01:31.404Z,0
2017-08-09T02:02:11.983Z,0
2017-08-09T02:02:52.576Z,0
2017-08-09T02:03:33.167Z,0
2017-08-09T02:04:13.744Z,0
2017-08-09T02:04:54.327Z,0
2017-08-09T02:05:34.908Z,0
2017-08-09T02:06:15.470Z,0
2017-08-09T02:06:56.053Z,0
2017-08-09T02:07:36.633Z,0
2017-08-09T02:08:17.208Z,0
2017-08-09T02:08:57.794Z,0
2017-08-09T02:09:38.396Z,0
2017-08-09T02:10:18.979Z,0
2017-08-09T02:10:59.575Z,0
2017-08-09T02:11:40.166Z,0
2017-08-09T02:12:20.734Z,0
2017-08-09T02:13:01.332Z,0
2017-08-09T02:13:41.897Z,0
2017-08-09T02:14:22.489Z,0
2017-08-09T02:15:03.063Z,0
2017-08-09T02:15:43.655Z,0
2017-08-09T02:16:24.238Z,0
2017-08-09T02:17:04.831Z,0
2017-08-09T02:17:45.404Z,0
2017-08-09T02:18:25.997Z,0
2017-08-09T02:19:06.571Z,0
2017-08-09T02:19:47.146Z,0
2017-08-09T02:20:27.758Z,0
2017-08-09T02:21:08.334Z,0
2017-08-09T02:21:48.917Z,0
2017-08-09T02:22:29.513Z,0
2017-08-09T02:23:10.085Z,0
2017-08-09T02:23:50.663Z,0
2017-08-09T02:24:31.247Z,0
2017-08-09T02:25:11.857Z,0
2017-08-09T02:25:52.439Z,0
2017-08-09T02:26:33.014Z,0
2017-08-09T02:27:13.578Z,0
2017-08-09T02:27:54.150Z,0
2017-08-09T02:28:34.706Z,0
2017-08-09T02:29:15.299Z,0
2017-08-09T02:29:55.859Z,0
2017-08-09T02:30:36.427Z,0
2017-08-09T02:31:17.027Z,0
2017-08-09T02:31:57.637Z,0
2017-08-09T02:32:38.224Z,0
2017-08-09T02:33:18.804Z,0
2017-08-09T02:33:59.379Z,0
2017-08-09T02:34:39.974Z,0
2017-08-09T02:35:20.578Z,0
2017-08-09T02:36:01.159Z,0
2017-08-09T02:36:41.727Z,0
2017-08-09T02:37:22.296Z,0
2017-08-09T02:38:02.898Z,0
2017-08-09T02:38:43.470Z,0
2017-08-09T02:39:24.032Z,0
2017-08-09T02:40:04.597Z,0
2017-08-09T02:40:45.175Z,0
2017-08-09T02:41:25.754Z,0
2017-08-09T02:42:06.348Z,0
2017-08-09T02:42:46.918Z,0
2017-08-09T02:43:27.489Z,0
2017-08-09T02:44:08.061Z,0
2017-08-09T02:44:48.640Z,0
2017-08-09T02:45:29.267Z,0
2017-08-09T02:46:09.848Z,0
2017-08-09T02:46:50.445Z,0
2017-08-09T02:47:31.039Z,0
2017-08-09T02:48:11.637Z,0
2017-08-09T02:48:52.282Z,0
2017-08-09T02:49:32.854Z,0
2017-08-09T02:50:13.433Z,0
2017-08-09T02:50:54.020Z,0
2017-08-09T02:51:34.606Z,0
2017-08-09T02:52:15.181Z,0
2017-08-09T02:52:55.752Z,0
2017-08-09T02:53:36.323Z,0
2017-08-09T02:54:16.897Z,0
2017-08-09T02:54:57.474Z,0
2017-08-09T02:55:38.061Z,0
2017-08-09T02:56:18.632Z,0
2017-08-09T02:56:59.205Z,0
2017-08-09T02:57:39.788Z,0
2017-08-09T02:58:20.361Z,0
2017-08-09T02:59:00.931Z,0
2017-08-09T02:59:41.514Z,0
2017-08-09T03:00:22.084Z,0
2017-08-09T03:01:02.664Z,0
2017-08-09T03:01:43.236Z,0
2017-08-09T03:02:23.832Z,0
2017-08-09T03:03:04.407Z,0
2017-08-09T03:03:44.990Z,0
2017-08-09T03:04:25.586Z,0
2017-08-09T03:05:06.149Z,0
2017-08-09T03:05:46.730Z,0
2017-08-09T03:06:27.301Z,0
2017-08-09T03:07:07.897Z,0
2017-08-09T03:07:48.482Z,0
2017-08-09T03:08:29.070Z,0
2017-08-09T03:09:09.681Z,0
2017-08-09T03:09:50.244Z,0
2017-08-09T03:10:30.929Z,0
2017-08-09T03:11:11.494Z,0
2017-08-09T03:11:52.091Z,0
2017-08-09T03:12:32.657Z,0
2017-08-09T03:13:13.229Z,0
2017-08-09T03:13:53.799Z,0
2017-08-09T03:14:34.374Z,0
2017-08-09T03:15:14.959Z,0
2017-08-09T03:15:55.549Z,0
2017-08-09T03:16:36.128Z,0
2017-08-09T03:17:16.695Z,0
2017-08-09T03:17:57.269Z,0
2017-08-09T03:18:37.852Z,0
2017-08-09T03:19:18.434Z,0
2017-08-09T03:19:59.001Z,0
2017-08-09T03:20:39.593Z,0
2017-08-09T03:21:20.218Z,0
2017-08-09T03:22:00.806Z,0
2017-08-09T03:22:41.381Z,0
2017-08-09T03:23:22.008Z,0
2017-08-09T03:24:02.582Z,0
2017-08-09T03:24:43.153Z,0
2017-08-09T03:25:23.765Z,0
2017-08-09T03:26:04.360Z,0
2017-08-09T03:26:44.933Z,0
2017-08-09T03:27:25.505Z,0
2017-08-09T03:28:06.071Z,0
2017-08-09T03:28:46.642Z,0
2017-08-09T03:29:27.209Z,0
2017-08-09T03:30:07.806Z,0
2017-08-09T03:30:48.373Z,0
2017-08-09T03:31:28.954Z,0
2017-08-09T03:32:09.528Z,0
2017-08-09T03:32:50.126Z,0
2017-08-09T03:33:30.711Z,0
2017-08-09T03:34:11.282Z,0
2017-08-09T03:34:51.888Z,0
2017-08-09T03:35:32.473Z,0
2017-08-09T03:36:13.048Z,0
2017-08-09T03:36:53.636Z,0
2017-08-09T03:37:34.209Z,0
2017-08-09T03:38:14.802Z,0
2017-08-09T03:38:55.393Z,0
2017-08-09T03:39:35.960Z,0
2017-08-09T03:40:16.540Z,0
2017-08-09T03:40:57.109Z,0
2017-08-09T03:41:37.697Z,0
2017-08-09T03:42:18.262Z,0
2017-08-09T03:42:58.841Z,0
2017-08-09T03:43:39.444Z,0
2017-08-09T03:44:20.025Z,0
2017-08-09T03:45:00.594Z,0
2017-08-09T03:45:41.219Z,0
2017-08-09T03:46:21.819Z,0
2017-08-09T03:47:02.400Z,0
2017-08-09T03:47:42.976Z,0
2017-08-09T03:48:23.591Z,0
2017-08-09T03:49:04.165Z,0
2017-08-09T03:49:44.751Z,0
2017-08-09T03:50:25.348Z,0
2017-08-09T03:51:05.947Z,5
2017-08-09T03:51:46.539Z,5
2017-08-09T03:52:27.136Z,5
2017-08-09T03:53:07.736Z,5
2017-08-09T03:53:48.317Z,5
2017-08-09T03:54:28.897Z,5
2017-08-09T03:55:09.478Z,5
2017-08-09T03:55:50.072Z,5
2017-08-09T03:56:30.651Z,5
2017-08-09T03:57:11.264Z,5
2017-08-09T03:57:51.868Z,5
2017-08-09T03:58:32.474Z,5
2017-08-09T03:59:13.063Z,5
2017-08-09T03:59:53.641Z,5
2017-08-09T04:00:34.222Z,10
2017-08-09T04:01:14.781Z,10
2017-08-09T04:01:55.354Z,10
2017-08-09T04:02:35.932Z,10
2017-08-09T04:03:16.522Z,10
2017-08-09T04:03:57.099Z,10
2017-08-09T04:04:37.705Z,10
2017-08-09T04:05:18.292Z,10
2017-08-09T04:05:58.926Z,10
2017-08-09T04:06:39.510Z,10
2017-08-09T04:07:20.133Z,10
2017-08-09T04:08:00.715Z,10
2017-08-09T04:08:41.311Z,10
2017-08-09T04:09:21.899Z,10
2017-08-09T04:10:02.466Z,10
2017-08-09T04:10:43.105Z,10
2017-08-09T04:11:23.679Z,10
2017-08-09T04:12:04.267Z,10
2017-08-09T04:12:44.863Z,10
2017-08-09T04:13:25.444Z,10
2017-08-09T04:14:06.059Z,10
2017-08-09T04:14:46.633Z,10
2017-08-09T04:15:27.227Z,10
2017-08-09T04:16:07.793Z,10
2017-08-09T04:16:48.364Z,10
2017-08-09T04:17:28.946Z,10
2017-08-09T04:18:09.565Z,10
2017-08-09T04:18:50.143Z,10
2017-08-09T04:19:30.728Z,10
2017-08-09T04:20:11.309Z,10
2017-08-09T04:20:51.872Z,15
2017-08-09T04:21:32.459Z,15
2017-08-09T04:22:13.033Z,15
2017-08-09T04:22:53.612Z,15
2017-08-09T04:23:34.182Z,20
2017-08-09T04:24:14.751Z,20
2017-08-09T04:24:55.339Z,20
2017-08-09T04:25:35.930Z,20
2017-08-09T04:26:16.520Z,20
2017-08-09T04:26:57.113Z,20
2017-08-09T04:27:37.679Z,25
2017-08-09T04:28:18.257Z,25
2017-08-09T04:28:58.874Z,25
2017-08-09T04:29:39.466Z,25
2017-08-09T04:30:20.048Z,30
2017-08-09T04:31:00.619Z,25
2017-08-09T04:31:41.218Z,25
2017-08-09T04:32:21.820Z,25
2017-08-09T04:33:02.399Z,25
2017-08-09T04:33:42.979Z,30
2017-08-09T04:34:23.558Z,30
2017-08-09T04:35:04.137Z,30
2017-08-09T04:35:44.713Z,35
2017-08-09T04:36:25.289Z,35
2017-08-09T04:37:05.879Z,35
2017-08-09T04:37:46.457Z,35
2017-08-09T04:38:27.049Z,35
2017-08-09T04:39:07.617Z,35
2017-08-09T04:39:48.192Z,35
2017-08-09T04:40:28.756Z,35
2017-08-09T04:41:09.340Z,35
2017-08-09T04:41:49.924Z,35
2017-08-09T04:42:30.495Z,35
2017-08-09T04:43:11.088Z,35
2017-08-09T04:43:51.664Z,40
2017-08-09T04:44:32.248Z,35
2017-08-09T04:45:12.810Z,35
2017-08-09T04:45:53.396Z,35
2017-08-09T04:46:33.980Z,35
2017-08-09T04:47:14.574Z,35
2017-08-09T04:47:55.151Z,35
2017-08-09T04:48:35.734Z,35
2017-08-09T04:49:16.335Z,35
2017-08-09T04:49:57.060Z,35
2017-08-09T04:50:37.639Z,35
2017-08-09T04:51:18.209Z,40
2017-08-09T04:51:58.778Z,40
2017-08-09T04:52:39.369Z,40
2017-08-09T04:53:19.937Z,35
2017-08-09T04:54:00.549Z,35
2017-08-09T04:54:41.139Z,35
2017-08-09T04:55:21.710Z,35
2017-08-09T04:56:02.276Z,35
2017-08-09T04:56:42.882Z,40
2017-08-09T04:57:23.455Z,45
2017-08-09T04:58:04.076Z,45
2017-08-09T04:58:44.650Z,50
2017-08-09T04:59:25.265Z,50
2017-08-09T05:00:05.852Z,50
2017-08-09T05:00:46.447Z,45
2017-08-09T05:01:27.017Z,50
2017-08-09T05:02:07.586Z,50
2017-08-09T05:02:48.159Z,50
2017-08-09T05:03:28.760Z,50
2017-08-09T05:04:09.340Z,55
2017-08-09T05:04:49.911Z,60
2017-08-09T05:05:30.501Z,65
2017-08-09T05:06:11.113Z,60
2017-08-09T05:06:51.681Z,60
2017-08-09T05:07:32.275Z,70
2017-08-09T05:08:12.904Z,75
2017-08-09T05:08:53.450Z,80
2017-08-09T05:09:34.034Z,80
2017-08-09T05:10:14.627Z,85
2017-08-09T05:10:55.202Z,85
2017-08-09T05:11:35.781Z,85
2017-08-09T05:12:16.393Z,90
2017-08-09T05:12:57.006Z,95
2017-08-09T05:13:37.573Z,95
2017-08-09T05:14:18.146Z,95
2017-08-09T05:14:58.731Z,100
2017-08-09T05:15:39.315Z,105
2017-08-09T05:16:19.882Z,110
2017-08-09T05:17:00.448Z,115
2017-08-09T05:17:41.039Z,115
2017-08-09T05:18:21.636Z,115
2017-08-09T05:19:02.202Z,120
2017-08-09T05:19:42.769Z,120
2017-08-09T05:20:23.350Z,125
2017-08-09T05:21:03.932Z,120
2017-08-09T05:21:44.509Z,125
2017-08-09T05:22:25.095Z,125
2017-08-09T05:23:05.702Z,125
2017-08-09T05:23:46.290Z,130
2017-08-09T05:24:26.876Z,120
2017-08-09T05:25:07.445Z,120
2017-08-09T05:25:48.034Z,120
2017-08-09T05:26:28.639Z,115
2017-08-09T05:27:09.231Z,115
2017-08-09T05:27:49.812Z,115
2017-08-09T05:28:30.397Z,105
2017-08-09T05:29:10.956Z,105
2017-08-09T05:29:51.555Z,110
2017-08-09T05:30:32.131Z,110
2017-08-09T05:31:12.709Z,110
2017-08-09T05:31:53.283Z,110
2017-08-09T05:32:33.887Z,105
2017-08-09T05:33:14.466Z,105
2017-08-09T05:33:55.066Z,105
2017-08-09T05:34:35.632Z,110
2017-08-09T05:35:16.204Z,120
2017-08-09T05:35:56.793Z,120
2017-08-09T05:36:37.387Z,115
2017-08-09T05:37:17.983Z,120
2017-08-09T05:37:58.565Z,120
2017-08-09T05:38:39.152Z,115
2017-08-09T05:39:19.735Z,115
2017-08-09T05:40:00.311Z,115
2017-08-09T05:40:40.911Z,115
2017-08-09T05:41:21.467Z,115
2017-08-09T05:42:02.043Z,115
2017-08-09T05:42:42.645Z,115
2017-08-09T05:43:23.605Z,115
2017-08-09T05:44:04.190Z,115
2017-08-09T05:44:44.804Z,120
2017-08-09T05:45:25.391Z,165
2017-08-09T05:46:05.972Z,405
2017-08-09T05:46:46.581Z,705
2017-08-09T05:47:27.150Z,1000
2017-08-09T05:48:07.727Z,1210
2017-08-09T05:48:48.326Z,1245
2017-08-09T05:49:28.930Z,1260
2017-08-09T05:50:09.532Z,1250
2017-08-09T05:50:50.175Z,1235
2017-08-09T05:51:30.841Z,1300
2017-08-09T05:52:11.417Z,1335
2017-08-09T05:52:51.984Z,1330
2017-08-09T05:53:32.563Z,1355
2017-08-09T05:54:13.150Z,1410
2017-08-09T05:54:53.746Z,1470
2017-08-09T05:55:34.341Z,1475
2017-08-09T05:56:14.928Z,1420
2017-08-09T05:56:55.648Z,1450
2017-08-09T05:57:37.011Z,1500
2017-08-09T05:58:17.576Z,1510
2017-08-09T05:58:58.160Z,1475
2017-08-09T05:59:38.743Z,1520
2017-08-09T06:00:19.320Z,1525
2017-08-09T06:01:00.119Z,1510
2017-08-09T06:01:40.715Z,1480
2017-08-09T06:02:21.306Z,1480
2017-08-09T06:03:01.893Z,1435
2017-08-09T06:03:42.598Z,1390
2017-08-09T06:04:23.180Z,1420
2017-08-09T06:05:03.768Z,1455
2017-08-09T06:05:44.803Z,1500
2017-08-09T06:06:25.875Z,1480
2017-08-09T06:07:06.448Z,1460
2017-08-09T06:07:47.200Z,1485
2017-08-09T06:08:27.821Z,1560
2017-08-09T06:09:09.072Z,1615
2017-08-09T06:09:49.733Z,1595
2017-08-09T06:10:30.484Z,1630
2017-08-09T06:11:11.067Z,1670
2017-08-09T06:11:52.033Z,1675
2017-08-09T06:12:32.779Z,1630
2017-08-09T06:13:13.686Z,1620
2017-08-09T06:13:54.392Z,1650
2017-08-09T06:14:34.991Z,1570
2017-08-09T06:15:15.567Z,1485
2017-08-09T06:15:56.340Z,1405
2017-08-09T06:16:37.222Z,1475
2017-08-09T06:17:18.012Z,1715
2017-08-09T06:17:58.657Z,1745
2017-08-09T06:18:39.806Z,1715
2017-08-09T06:19:20.495Z,1675
2017-08-09T06:20:01.186Z,1570
2017-08-09T06:20:42.030Z,1595
2017-08-09T06:21:22.694Z,1540
2017-08-09T06:22:03.639Z,1460
2017-08-09T06:22:44.318Z,1700
2017-08-09T06:23:25.136Z,1720
2017-08-09T06:24:05.908Z,1760
2017-08-09T06:24:46.496Z,1785
2017-08-09T06:25:27.079Z,1785
2017-08-09T06:26:07.660Z,1770
2017-08-09T06:26:48.228Z,1765
2017-08-09T06:27:28.838Z,1765
2017-08-09T06:28:09.394Z,1805
2017-08-09T06:28:50.009Z,1865
2017-08-09T06:29:30.592Z,1845
2017-08-09T06:30:11.208Z,1765
2017-08-09T06:30:51.809Z,1705
2017-08-09T06:31:32.427Z,1725
2017-08-09T06:32:13.007Z,1760
2017-08-09T06:32:53.614Z,1730
2017-08-09T06:33:34.199Z,1730
2017-08-09T06:34:14.812Z,1715
2017-08-09T06:34:55.390Z,1800
2017-08-09T06:35:35.973Z,1870
2017-08-09T06:36:16.563Z,1900
2017-08-09T06:36:57.160Z,1920
2017-08-09T06:37:37.762Z,1860
2017-08-09T06:38:18.356Z,1830
2017-08-09T06:38:58.972Z,1835
2017-08-09T06:39:39.563Z,1890
2017-08-09T06:40:20.185Z,1915
2017-08-09T06:41:00.769Z,1880
2017-08-09T06:41:41.376Z,1865
2017-08-09T06:42:21.974Z,1830
2017-08-09T06:43:02.580Z,1835
2017-08-09T06:43:43.179Z,1885
2017-08-09T06:44:23.766Z,1895
2017-08-09T06:45:04.374Z,1975
2017-08-09T06:45:44.966Z,1950
2017-08-09T06:46:25.565Z,1925
2017-08-09T06:47:06.166Z,1810
2017-08-09T06:47:46.756Z,1705
2017-08-09T06:48:27.353Z,1680
2017-08-09T06:49:07.963Z,1820
2017-08-09T06:49:48.561Z,1850
2017-08-09T06:50:29.161Z,1820
2017-08-09T06:51:09.781Z,1790
2017-08-09T06:51:50.374Z,1700
2017-08-09T06:52:30.951Z,1690
2017-08-09T06:53:11.542Z,1460
2017-08-09T06:53:52.243Z,1340
2017-08-09T06:54:32.842Z,1275
2017-08-09T06:55:13.556Z,1275
2017-08-09T06:55:54.537Z,1370
2017-08-09T06:56:35.219Z,1525
2017-08-09T06:57:16.149Z,1580
2017-08-09T06:57:57.028Z,1480
2017-08-09T06:58:37.765Z,920
2017-08-09T06:59:18.515Z,620
2017-08-09T06:59:59.135Z,445
2017-08-09T07:00:39.815Z,610
2017-08-09T07:01:20.420Z,790
2017-08-09T07:02:01.067Z,725
2017-08-09T07:02:41.821Z,720
2017-08-09T07:03:22.632Z,705
2017-08-09T07:04:03.218Z,855
2017-08-09T07:04:43.975Z,1030
2017-08-09T07:05:24.675Z,905
2017-08-09T07:06:05.256Z,795
2017-08-09T07:06:45.850Z,440
2017-08-09T07:07:26.447Z,615
2017-08-09T07:08:07.037Z,570
2017-08-09T07:08:47.621Z,730
2017-08-09T07:09:28.192Z,880
2017-08-09T07:10:08.769Z,900
2017-08-09T07:10:49.353Z,790
2017-08-09T07:11:29.946Z,645
2017-08-09T07:12:10.527Z,560
2017-08-09T07:12:51.137Z,655
2017-08-09T07:13:31.731Z,755
2017-08-09T07:14:12.326Z,790
2017-08-09T07:14:52.913Z,785
2017-08-09T07:15:33.503Z,890
2017-08-09T07:16:14.125Z,775
2017-08-09T07:16:54.749Z,1260
2017-08-09T07:17:35.326Z,1140
2017-08-09T07:18:15.900Z,1065
2017-08-09T07:18:56.503Z,1155
2017-08-09T07:19:37.092Z,695
2017-08-09T07:20:17.674Z,555
2017-08-09T07:20:58.274Z,480
2017-08-09T07:21:38.872Z,515
2017-08-09T07:22:19.469Z,675
2017-08-09T07:23:00.055Z,755
2017-08-09T07:23:40.639Z,680
2017-08-09T07:24:21.222Z,615
2017-08-09T07:25:01.811Z,565
2017-08-09T07:25:42.386Z,555
2017-08-09T07:26:22.991Z,440
2017-08-09T07:27:03.617Z,410
2017-08-09T07:27:44.197Z,440
2017-08-09T07:28:24.795Z,420
2017-08-09T07:29:05.384Z,340
2017-08-09T07:29:45.965Z,330
2017-08-09T07:30:26.555Z,335
2017-08-09T07:31:07.134Z,275
2017-08-09T07:31:47.709Z,300
2017-08-09T07:32:28.301Z,335
2017-08-09T07:33:08.893Z,365
2017-08-09T07:33:49.489Z,445
2017-08-09T07:34:30.091Z,485
2017-08-09T07:35:10.692Z,485
2017-08-09T07:35:51.278Z,530
2017-08-09T07:36:31.881Z,550
2017-08-09T07:37:12.543Z,575
2017-08-09T07:37:53.134Z,595
2017-08-09T07:38:33.716Z,575
2017-08-09T07:39:14.301Z,530
2017-08-09T07:39:54.908Z,495
2017-08-09T07:40:35.493Z,470
2017-08-09T07:41:16.094Z,440
2017-08-09T07:41:56.682Z,410
2017-08-09T07:42:37.280Z,345
2017-08-09T07:43:17.896Z,330
2017-08-09T07:43:58.496Z,325
2017-08-09T07:44:39.069Z,320
2017-08-09T07:45:19.672Z,270
2017-08-09T07:46:00.269Z,250
2017-08-09T07:46:40.862Z,265
2017-08-09T07:47:21.465Z,270
2017-08-09T07:48:02.037Z,270
2017-08-09T07:48:42.611Z,300
2017-08-09T07:49:23.209Z,345
2017-08-09T07:50:03.837Z,310
2017-08-09T07:50:44.435Z,310
2017-08-09T07:51:25.026Z,345
2017-08-09T07:52:05.616Z,365
2017-08-09T07:52:46.202Z,360
2017-08-09T07:53:26.782Z,335
2017-08-09T07:54:07.386Z,325
2017-08-09T07:54:47.979Z,330
2017-08-09T07:55:28.554Z,350
2017-08-09T07:56:09.144Z,385
2017-08-09T07:56:49.746Z,370
2017-08-09T07:57:30.327Z,315
2017-08-09T07:58:10.918Z,270
2017-08-09T07:58:51.507Z,250
2017-08-09T07:59:32.119Z,225
2017-08-09T08:00:12.738Z,215
2017-08-09T08:00:53.326Z,210
2017-08-09T08:01:33.914Z,200
2017-08-09T08:02:14.530Z,205
2017-08-09T08:02:55.119Z,210
2017-08-09T08:03:35.690Z,215
2017-08-09T08:04:16.281Z,220
2017-08-09T08:04:56.864Z,220
2017-08-09T08:05:37.491Z,215
2017-08-09T08:06:18.096Z,210
2017-08-09T08:06:58.671Z,205
2017-08-09T08:07:39.309Z,200
2017-08-09T08:08:19.884Z,205
2017-08-09T08:09:00.466Z,215
2017-08-09T08:09:41.062Z,230
2017-08-09T08:10:21.667Z,250
2017-08-09T08:11:02.239Z,265
2017-08-09T08:11:42.918Z,250
2017-08-09T08:12:23.489Z,235
2017-08-09T08:13:04.068Z,225
2017-08-09T08:13:44.878Z,225
2017-08-09T08:14:25.485Z,190
2017-08-09T08:15:06.053Z,170
2017-08-09T08:15:46.652Z,160
2017-08-09T08:16:27.218Z,160
2017-08-09T08:17:07.808Z,180
2017-08-09T08:17:48.403Z,195
2017-08-09T08:18:28.976Z,260
2017-08-09T08:19:09.552Z,260
2017-08-09T08:19:50.167Z,240
2017-08-09T08:20:30.737Z,240
2017-08-09T08:21:11.331Z,245
2017-08-09T08:21:51.927Z,240
2017-08-09T08:22:32.508Z,210
2017-08-09T08:23:13.125Z,200
2017-08-09T08:23:53.820Z,195
2017-08-09T08:24:34.483Z,190
2017-08-09T08:25:15.084Z,190
2017-08-09T08:25:55.673Z,190
2017-08-09T08:26:36.292Z,180
2017-08-09T08:27:16.961Z,175
2017-08-09T08:27:57.554Z,170
2017-08-09T08:28:38.126Z,165
2017-08-09T08:29:18.709Z,160
2017-08-09T08:29:59.509Z,160
2017-08-09T08:30:40.331Z,160
2017-08-09T08:31:22.065Z,160
2017-08-09T08:32:02.709Z,160
2017-08-09T08:32:43.420Z,170
2017-08-09T08:33:24.208Z,165
2017-08-09T08:34:04.817Z,160
2017-08-09T08:34:45.441Z,160
2017-08-09T08:35:26.054Z,160
2017-08-09T08:36:06.623Z,160
2017-08-09T08:36:47.413Z,160
2017-08-09T08:37:28.225Z,170
2017-08-09T08:38:08.800Z,180
2017-08-09T08:38:49.455Z,190
2017-08-09T08:39:30.526Z,195
2017-08-09T08:40:11.119Z,205
2017-08-09T08:40:52.118Z,220
2017-08-09T08:41:33.314Z,260
2017-08-09T08:42:13.877Z,275
2017-08-09T08:42:54.478Z,285
2017-08-09T08:43:35.072Z,290
2017-08-09T08:44:15.675Z,315
2017-08-09T08:44:56.638Z,300
2017-08-09T08:45:37.226Z,300
2017-08-09T08:46:17.790Z,295
2017-08-09T08:46:58.369Z,290
2017-08-09T08:47:38.971Z,285
2017-08-09T08:48:19.573Z,275
2017-08-09T08:49:00.162Z,265
2017-08-09T08:49:40.784Z,255
2017-08-09T08:50:21.355Z,240
2017-08-09T08:51:01.951Z,235
2017-08-09T08:51:42.587Z,225
2017-08-09T08:52:23.176Z,220
2017-08-09T08:53:03.820Z,215
2017-08-09T08:53:44.508Z,205
2017-08-09T08:54:25.383Z,200
2017-08-09T08:55:06.206Z,200
2017-08-09T08:55:46.794Z,200
2017-08-09T08:56:27.416Z,200
2017-08-09T08:57:08.059Z,195
2017-08-09T08:57:48.771Z,195
2017-08-09T08:58:29.659Z,190
2017-08-09T08:59:10.428Z,190
2017-08-09T08:59:51.304Z,185
2017-08-09T09:00:32.151Z,185
2017-08-09T09:01:13.041Z,185
2017-08-09T09:01:53.639Z,185
2017-08-09T09:02:34.282Z,185
2017-08-09T09:03:15.187Z,185
2017-08-09T09:03:56.922Z,180
2017-08-09T09:04:38.320Z,175
2017-08-09T09:05:18.893Z,175
2017-08-09T09:05:59.724Z,170
2017-08-09T09:06:40.553Z,170
2017-08-09T09:07:21.505Z,170
2017-08-09T09:08:02.306Z,165
2017-08-09T09:08:43.586Z,165
2017-08-09T09:09:24.502Z,160
2017-08-09T09:10:05.210Z,160
2017-08-09T09:10:46.030Z,160
2017-08-09T09:11:26.878Z,160
2017-08-09T09:12:07.910Z,165
2017-08-09T09:12:49.071Z,165
2017-08-09T09:13:30.280Z,165
2017-08-09T09:14:11.196Z,170
2017-08-09T09:14:51.869Z,170
2017-08-09T09:15:32.519Z,170
2017-08-09T09:16:13.602Z,170
2017-08-09T09:16:54.294Z,170
2017-08-09T09:17:34.780Z,175
2017-08-09T09:18:15.656Z,175
2017-08-09T09:18:56.617Z,175
2017-08-09T09:19:37.740Z,165
2017-08-09T09:20:18.964Z,155
2017-08-09T09:20:59.591Z,150
2017-08-09T09:21:40.187Z,150
2017-08-09T09:22:21.394Z,145
2017-08-09T09:23:02.400Z,145
2017-08-09T09:23:43.176Z,140
2017-08-09T09:24:23.933Z,140
2017-08-09T09:25:04.656Z,135
2017-08-09T09:25:45.331Z,135
2017-08-09T09:26:25.968Z,135
2017-08-09T09:27:07.035Z,135
2017-08-09T09:27:47.859Z,135
2017-08-09T09:28:29.402Z,135
2017-08-09T09:29:10.015Z,135
2017-08-09T09:29:51.345Z,130
2017-08-09T09:30:32.216Z,130
2017-08-09T09:31:13.276Z,130
2017-08-09T09:31:53.999Z,130
2017-08-09T09:32:34.861Z,130
2017-08-09T09:33:16.141Z,130
2017-08-09T09:33:56.883Z,130
2017-08-09T09:34:37.457Z,130
2017-08-09T09:35:18.045Z,130
2017-08-09T09:35:58.690Z,130